createdAt,value
2023-03-14T00:00:25.154Z,1.55
2023-03-14T00:03:17.150Z,1.20
2023-03-14T00:05:52.251Z,1.40
2023-03-14T00:08:26.072Z,1.30
2023-03-14T00:11:27.369Z,1.50
2023-03-14T00:13:59.469Z,1.50
2023-03-14T00:16:31.829Z,1.38
2023-03-14T00:19:04.273Z,1.50
2023-03-14T00:21:39.319Z,1.50
2023-03-14T00:24:12.283Z,1.50
2023-03-14T00:26:44.748Z,1.42
2023-03-14T00:29:16.789Z,1.58
2023-03-14T00:31:49.212Z,1.60
2023-03-14T00:34:21.249Z,1.50
2023-03-14T00:36:56.268Z,1.45
2023-03-14T00:39:28.488Z,1.30
2023-03-14T00:42:12.431Z,1.70
2023-03-14T00:44:44.327Z,1.48
2023-03-14T00:47:16.420Z,1.50
2023-03-14T00:49:48.328Z,1.63
2023-03-14T00:52:25.970Z,1.60
2023-03-14T00:54:57.686Z,1.70
2023-03-14T00:57:29.731Z,1.35
2023-03-14T01:00:04.468Z,1.27
2023-03-14T01:02:36.732Z,1.30
2023-03-14T01:05:11.512Z,1.33
2023-03-14T01:07:46.353Z,1.50
2023-03-14T01:10:18.072Z,1.67
2023-03-14T01:12:50.459Z,1.60
2023-03-14T01:15:22.650Z,1.60
2023-03-14T01:17:54.960Z,1.63
2023-03-14T01:20:29.517Z,1.48
2023-03-14T01:23:11.108Z,1.50
2023-03-14T01:25:45.660Z,1.60
2023-03-14T01:28:17.672Z,1.42
2023-03-14T01:30:50.337Z,1.40
2023-03-14T01:33:25.432Z,1.33
2023-03-14T01:35:59.709Z,1.50
2023-03-14T01:38:37.766Z,1.60
2023-03-14T01:41:10.736Z,1.42
2023-03-14T01:43:42.648Z,1.40
2023-03-14T01:46:32.460Z,1.30
2023-03-14T01:49:11.419Z,1.35
2023-03-14T01:51:50.419Z,1.40
2023-03-14T01:54:29.357Z,1.27
2023-03-14T01:57:06.558Z,1.45
2023-03-14T01:59:40.596Z,1.20
2023-03-14T02:02:16.375Z,1.50
2023-03-14T02:04:49.845Z,1.10
2023-03-14T02:07:26.877Z,1.17
2023-03-14T02:10:05.603Z,1.30
2023-03-14T02:12:38.478Z,1.50
2023-03-14T02:15:12.136Z,1.27
2023-03-14T02:17:46.792Z,1.13
2023-03-14T02:20:32.271Z,1.30
2023-03-14T02:23:04.269Z,1.25
2023-03-14T02:25:47.550Z,1.20
2023-03-14T02:28:22.586Z,1.45
2023-03-14T02:30:54.711Z,1.17
2023-03-14T02:33:27.467Z,1.30
2023-03-14T02:36:06.252Z,1.13
2023-03-14T02:38:44.789Z,1.20
2023-03-14T02:41:22.585Z,1.00
2023-03-14T02:43:57.156Z,1.13
2023-03-14T02:46:29.945Z,1.10
2023-03-14T02:49:06.132Z,1.17
2023-03-14T02:51:39.485Z,1.40
2023-03-14T02:54:12.185Z,1.20
2023-03-14T02:56:44.684Z,1.00
2023-03-14T02:59:19.313Z,1.30
2023-03-14T03:01:51.690Z,1.10
2023-03-14T03:04:23.726Z,1.13
2023-03-14T03:06:56.092Z,1.38
2023-03-14T03:09:28.283Z,1.20
2023-03-14T03:12:00.675Z,0.88
2023-03-14T03:14:34.970Z,1.10
2023-03-14T03:17:07.103Z,1.00
2023-03-14T03:19:39.046Z,1.10
2023-03-14T03:22:11.438Z,1.10
2023-03-14T03:24:43.847Z,1.20
2023-03-14T03:27:15.972Z,1.20
2023-03-14T03:29:50.431Z,1.10
2023-03-14T03:32:22.514Z,1.13
2023-03-14T03:34:55.737Z,1.20
2023-03-14T03:37:27.863Z,1.10
2023-03-14T03:39:59.494Z,1.30
2023-03-14T03:42:31.762Z,1.08
2023-03-14T03:45:07.524Z,1.10
2023-03-14T03:47:39.820Z,1.27
2023-03-14T03:50:12.529Z,1.25
2023-03-14T03:52:44.499Z,1.25
2023-03-14T03:55:16.261Z,1.20
2023-03-14T03:57:48.423Z,1.27
2023-03-14T04:00:23.024Z,1.30
2023-03-14T04:02:55.164Z,1.30
2023-03-14T04:05:27.171Z,1.00
2023-03-14T04:07:59.463Z,1.30
2023-03-14T04:10:31.234Z,1.00
2023-03-14T04:13:03.658Z,1.27
2023-03-14T04:15:38.081Z,1.40
2023-03-14T04:18:10.080Z,1.20
2023-03-14T04:20:41.714Z,1.05
2023-03-14T04:23:14.223Z,1.13
2023-03-14T04:25:46.036Z,1.25
2023-03-14T04:28:18.075Z,1.20
2023-03-14T04:30:52.558Z,1.10
2023-03-14T04:33:24.656Z,1.20
2023-03-14T04:35:58.966Z,1.25
2023-03-14T04:38:30.891Z,1.20
2023-03-14T04:41:03.073Z,1.00
2023-03-14T04:43:36.023Z,1.10
2023-03-14T04:46:10.965Z,1.25
2023-03-14T04:48:42.910Z,1.15
2023-03-14T04:51:14.432Z,1.30
2023-03-14T04:53:46.586Z,1.23
2023-03-14T04:56:18.288Z,1.50
2023-03-14T04:58:50.335Z,1.30
2023-03-14T05:01:24.853Z,1.30
2023-03-14T05:03:56.874Z,1.30
2023-03-14T05:06:28.590Z,1.45
2023-03-14T05:09:00.555Z,1.20
2023-03-14T05:11:32.326Z,1.23
2023-03-14T05:14:04.668Z,1.40
2023-03-14T05:16:39.392Z,1.30
2023-03-14T05:19:12.528Z,1.30
2023-03-14T05:21:44.600Z,1.50
2023-03-14T05:24:16.949Z,1.20
2023-03-14T05:26:48.965Z,1.20
2023-03-14T05:29:21.376Z,1.20
2023-03-14T05:31:56.222Z,1.30
2023-03-14T05:34:28.650Z,1.40
2023-03-14T05:37:00.751Z,1.65
2023-03-14T05:39:33.128Z,1.23
2023-03-14T05:42:05.090Z,1.35
2023-03-14T05:44:37.542Z,1.20
2023-03-14T05:47:12.361Z,1.10
2023-03-14T05:49:44.776Z,1.27
2023-03-14T05:52:16.811Z,1.27
2023-03-14T05:54:49.290Z,1.50
2023-03-14T05:57:21.289Z,1.33
2023-03-14T05:59:54.941Z,1.48
2023-03-14T06:02:29.627Z,1.50
2023-03-14T06:05:02.268Z,1.48
2023-03-14T06:07:34.234Z,1.40
2023-03-14T06:10:07.324Z,1.48
2023-03-14T06:12:39.329Z,1.30
2023-03-14T06:15:12.992Z,1.40
2023-03-14T06:17:47.639Z,1.80
2023-03-14T06:20:20.249Z,1.40
2023-03-14T06:22:52.248Z,1.65
2023-03-14T06:25:24.785Z,1.50
2023-03-14T06:27:56.930Z,1.48
2023-03-14T06:30:29.436Z,1.35
2023-03-14T06:33:04.082Z,1.48
2023-03-14T06:35:36.606Z,1.60
2023-03-14T06:38:09.032Z,1.40
2023-03-14T06:40:41.471Z,1.50
2023-03-14T06:43:13.730Z,1.50
2023-03-14T06:45:46.080Z,1.85
2023-03-14T06:48:20.738Z,1.30
2023-03-14T06:50:53.377Z,1.60
2023-03-14T06:53:25.535Z,1.40
2023-03-14T06:55:57.612Z,1.40
2023-03-14T06:58:29.271Z,1.80
2023-03-14T07:01:01.430Z,1.52
2023-03-14T07:03:36.133Z,1.95
2023-03-14T07:06:08.653Z,1.70
2023-03-14T07:08:40.736Z,1.52
2023-03-14T07:11:13.689Z,1.80
2023-03-14T07:13:45.835Z,1.60
2023-03-14T07:16:18.333Z,1.50
2023-03-14T07:18:53.434Z,1.40
2023-03-14T07:21:25.562Z,1.73
2023-03-14T07:23:57.362Z,1.70
2023-03-14T07:26:29.312Z,1.65
2023-03-14T07:29:04.421Z,1.40
2023-03-14T07:31:36.520Z,1.70
2023-03-14T07:34:10.943Z,1.65
2023-03-14T07:36:43.041Z,1.40
2023-03-14T07:39:15.007Z,1.48
2023-03-14T07:41:47.206Z,1.63
2023-03-14T07:44:18.991Z,1.80
2023-03-14T07:46:51.282Z,1.63
2023-03-14T07:49:25.702Z,2.20
2023-03-14T07:51:58.035Z,1.50
2023-03-14T07:54:29.857Z,1.77
2023-03-14T07:57:02.778Z,1.55
2023-03-14T07:59:34.547Z,1.60
2023-03-14T08:02:10.942Z,1.67
2023-03-14T08:04:45.873Z,1.80
2023-03-14T08:07:18.454Z,1.85
2023-03-14T08:09:50.695Z,1.50
2023-03-14T08:12:23.208Z,1.52
2023-03-14T08:14:55.458Z,1.35
2023-03-14T08:17:28.932Z,1.83
2023-03-14T08:20:04.711Z,1.55
2023-03-14T08:22:36.963Z,1.60
2023-03-14T08:25:09.818Z,1.35
2023-03-14T08:27:42.886Z,1.85
2023-03-14T08:30:19.830Z,1.60
2023-03-14T08:32:52.268Z,1.85
2023-03-14T08:35:26.828Z,2.00
2023-03-14T08:37:59.792Z,1.65
2023-03-14T08:40:31.671Z,2.05
2023-03-14T08:43:03.948Z,1.40
2023-03-14T08:45:35.804Z,1.70
2023-03-14T08:48:08.994Z,2.00
2023-03-14T08:50:43.584Z,1.83
2023-03-14T08:53:15.835Z,1.50
2023-03-14T08:55:48.190Z,1.60
2023-03-14T08:58:21.534Z,1.83
2023-03-14T09:00:53.863Z,1.70
2023-03-14T09:03:38.251Z,1.60
2023-03-14T09:06:14.677Z,1.77
2023-03-14T09:08:47.065Z,1.77
2023-03-14T09:11:20.040Z,1.60
2023-03-14T09:13:52.677Z,1.40
2023-03-14T09:16:24.752Z,1.65
2023-03-14T09:19:00.898Z,1.52
2023-03-14T09:21:35.652Z,1.90
2023-03-14T09:24:08.742Z,1.90
2023-03-14T09:26:43.278Z,1.50
2023-03-14T09:29:15.717Z,1.50
2023-03-14T09:31:47.694Z,1.40
2023-03-14T09:34:20.405Z,1.77
2023-03-14T09:36:54.931Z,1.80
2023-03-14T09:39:27.464Z,1.50
2023-03-14T09:42:06.232Z,1.42
2023-03-14T09:44:42.036Z,1.25
2023-03-14T09:47:21.190Z,1.40
2023-03-14T09:49:53.680Z,1.48
2023-03-14T09:52:33.749Z,1.55
2023-03-14T09:55:09.258Z,1.50
2023-03-14T09:57:41.381Z,1.27
2023-03-14T10:00:21.837Z,1.50
2023-03-14T10:02:58.794Z,1.88
2023-03-14T10:05:31.619Z,1.40
2023-03-14T10:08:06.099Z,1.50
2023-03-14T10:10:39.146Z,1.13
2023-03-14T10:13:19.709Z,1.25
2023-03-14T10:15:55.660Z,1.50
2023-03-14T10:18:29.284Z,1.33
2023-03-14T10:21:21.923Z,1.60
2023-03-14T10:23:59.066Z,1.38
2023-03-14T10:26:34.624Z,1.70
2023-03-14T10:29:12.726Z,1.50
2023-03-14T10:31:54.858Z,1.60
2023-03-14T10:34:33.565Z,1.63
2023-03-14T10:37:13.331Z,1.17
2023-03-14T10:39:52.008Z,1.42
2023-03-14T10:42:31.204Z,1.42
2023-03-14T10:45:09.075Z,1.55
2023-03-14T10:47:53.509Z,1.40
2023-03-14T10:50:31.575Z,1.40
2023-03-14T10:53:08.864Z,1.40
2023-03-14T10:55:50.744Z,1.15
2023-03-14T10:58:28.994Z,1.67
2023-03-14T11:01:18.679Z,1.10
2023-03-14T11:03:58.552Z,1.17
2023-03-14T11:06:40.314Z,1.30
2023-03-14T11:09:23.021Z,1.30
2023-03-14T11:12:00.958Z,1.45
2023-03-14T11:14:40.624Z,1.20
2023-03-14T11:17:20.816Z,1.48
2023-03-14T11:20:10.541Z,1.50
2023-03-14T11:22:48.385Z,1.40
2023-03-14T11:25:30.621Z,1.30
2023-03-14T11:28:14.350Z,1.05
2023-03-14T11:30:55.055Z,1.17
2023-03-14T11:33:32.455Z,1.20
2023-03-14T11:36:10.872Z,1.00
2023-03-14T11:38:47.679Z,0.95
2023-03-14T11:41:24.347Z,1.13
2023-03-14T11:44:01.731Z,1.05
2023-03-14T11:46:39.609Z,1.30
2023-03-14T11:49:21.462Z,1.40
2023-03-14T11:52:01.071Z,1.42
2023-03-14T11:54:44.470Z,1.13
2023-03-14T11:57:20.017Z,1.20
2023-03-14T12:00:00.155Z,1.00
2023-03-14T12:02:45.142Z,1.00
2023-03-14T12:05:49.872Z,1.08
2023-03-14T12:08:44.241Z,1.20
2023-03-14T12:11:22.379Z,1.10
2023-03-14T12:13:56.994Z,1.00
2023-03-14T12:16:40.773Z,1.10
2023-03-14T12:19:38.684Z,0.90
2023-03-14T12:22:28.094Z,0.88
2023-03-14T12:25:07.009Z,1.13
2023-03-14T12:28:07.614Z,1.20
2023-03-14T12:30:42.495Z,0.90
2023-03-14T12:33:36.558Z,1.02
2023-03-14T12:36:23.058Z,1.38
2023-03-14T12:39:08.412Z,1.38
2023-03-14T12:41:45.707Z,1.08
2023-03-14T12:44:46.786Z,1.02
2023-03-14T12:47:52.091Z,2.20
2023-03-14T12:50:33.173Z,1.58
2023-03-14T12:53:34.976Z,1.40
2023-03-14T12:56:12.450Z,0.90
2023-03-14T12:58:52.123Z,1.10
2023-03-14T13:01:25.309Z,0.95
2023-03-14T13:04:01.882Z,1.40
2023-03-14T13:06:55.732Z,0.90
2023-03-14T13:09:58.647Z,1.00
2023-03-14T13:12:34.796Z,0.98
2023-03-14T13:15:21.202Z,1.00
2023-03-14T13:17:55.688Z,1.10
2023-03-14T13:20:35.784Z,1.30
2023-03-14T13:23:25.180Z,1.50
2023-03-14T13:25:58.340Z,1.42
2023-03-14T13:28:31.782Z,1.13
2023-03-14T13:31:06.930Z,1.30
2023-03-14T13:33:39.457Z,1.20
2023-03-14T13:36:14.231Z,1.58
2023-03-14T13:38:49.382Z,1.10
2023-03-14T13:41:22.303Z,1.13
2023-03-14T13:43:54.632Z,1.30
2023-03-14T13:46:28.054Z,1.30
2023-03-14T13:49:03.584Z,1.45
2023-03-14T13:51:37.358Z,1.40
2023-03-14T13:54:18.897Z,1.20
2023-03-14T13:56:52.066Z,0.93
2023-03-14T13:59:27.780Z,1.08
2023-03-14T14:02:03.181Z,1.00
2023-03-14T14:04:40.493Z,1.17
2023-03-14T14:07:17.544Z,0.95
2023-03-14T14:09:55.390Z,1.30
2023-03-14T14:12:34.063Z,0.75
2023-03-14T14:15:09.509Z,0.82
2023-03-14T14:17:46.321Z,0.70
2023-03-14T14:20:26.782Z,0.80
2023-03-14T14:23:05.661Z,0.75
2023-03-14T14:25:41.026Z,0.70
2023-03-14T14:28:22.145Z,0.90
2023-03-14T14:31:05.752Z,1.60
2023-03-14T14:33:49.342Z,1.10
2023-03-14T14:36:26.502Z,1.10
2023-03-14T14:39:02.964Z,1.10
2023-03-14T14:41:43.676Z,2.00
2023-03-14T14:44:18.303Z,1.30
2023-03-14T14:46:51.086Z,0.90
2023-03-14T14:49:24.379Z,1.00
2023-03-14T14:52:05.923Z,0.70
2023-03-14T14:54:42.983Z,0.90
2023-03-14T14:57:23.374Z,0.85
2023-03-14T15:00:00.218Z,1.27
2023-03-14T15:02:41.499Z,0.80
2023-03-14T15:05:18.012Z,0.80
2023-03-14T15:07:51.098Z,0.80
2023-03-14T15:10:32.632Z,0.80
2023-03-14T15:13:14.741Z,0.98
2023-03-14T15:15:47.892Z,0.63
2023-03-14T15:18:23.817Z,0.90
2023-03-14T15:20:57.400Z,1.23
2023-03-14T15:23:29.923Z,0.90
2023-03-14T15:26:02.419Z,1.00
2023-03-14T15:28:37.300Z,0.88
2023-03-14T15:31:09.808Z,4.18
2023-03-14T15:33:41.650Z,0.90
2023-03-14T15:36:25.036Z,0.77
2023-03-14T15:38:58.708Z,0.70
2023-03-14T15:41:32.410Z,0.80
2023-03-14T15:44:06.977Z,0.80
2023-03-14T15:46:42.802Z,1.00
2023-03-14T15:49:14.655Z,0.80
2023-03-14T15:51:47.205Z,0.80
2023-03-14T15:54:18.937Z,0.80
2023-03-14T15:56:53.173Z,0.93
2023-03-14T15:59:28.598Z,0.98
2023-03-14T16:02:01.193Z,1.05
2023-03-14T16:04:33.252Z,1.00
2023-03-14T16:07:05.694Z,1.10
2023-03-14T16:09:37.790Z,0.90
2023-03-14T16:12:10.464Z,1.00
2023-03-14T16:14:45.126Z,1.10
2023-03-14T16:17:17.209Z,0.95
2023-03-14T16:19:49.168Z,1.00
2023-03-14T16:22:21.305Z,0.90
2023-03-14T16:24:53.177Z,1.10
2023-03-14T16:27:25.386Z,1.15
2023-03-14T16:30:00.659Z,1.10
2023-03-14T16:32:36.132Z,0.90
2023-03-14T16:35:08.987Z,1.00
2023-03-14T16:37:41.229Z,1.13
2023-03-14T16:40:14.481Z,1.20
2023-03-14T16:45:41.743Z,1.23
2023-03-14T16:48:13.914Z,1.27
2023-03-14T16:50:45.909Z,1.23
2023-03-14T16:53:17.949Z,1.40
2023-03-14T16:55:49.929Z,1.52
2023-03-14T16:58:22.081Z,1.70
2023-03-14T17:00:58.200Z,1.85
2023-03-14T17:03:30.550Z,1.73
2023-03-14T17:06:03.954Z,1.90
2023-03-14T17:08:37.798Z,1.95
2023-03-14T17:11:10.214Z,2.50
2023-03-14T17:13:43.114Z,2.35
2023-03-14T17:16:17.674Z,2.40
2023-03-14T17:18:49.813Z,2.63
2023-03-14T17:21:21.836Z,3.25
2023-03-14T17:23:54.432Z,3.10
2023-03-14T17:26:26.672Z,3.83
2023-03-14T17:28:59.364Z,4.60
2023-03-14T17:31:34.184Z,4.40
2023-03-14T17:34:07.208Z,4.68
2023-03-14T17:36:39.400Z,4.30
2023-03-14T17:39:12.402Z,5.60
2023-03-14T17:41:44.864Z,5.60
2023-03-14T17:44:18.470Z,6.60
2023-03-14T17:46:54.233Z,5.60
2023-03-14T17:49:27.044Z,6.35
2023-03-14T17:51:59.310Z,6.60
2023-03-14T17:54:54.552Z,6.43
2023-03-14T17:57:27.125Z,6.32
2023-03-14T17:59:59.880Z,6.63
2023-03-14T18:02:35.469Z,6.28
2023-03-14T18:05:09.428Z,7.13
2023-03-14T18:07:42.477Z,8.57
2023-03-14T18:10:17.564Z,8.77
2023-03-14T18:12:49.792Z,8.90
2023-03-14T18:15:22.754Z,8.73
2023-03-14T18:17:57.845Z,7.57
2023-03-14T18:20:30.904Z,7.07
2023-03-14T18:23:04.057Z,6.53
2023-03-14T18:25:36.793Z,7.10
2023-03-14T18:28:08.784Z,7.25
2023-03-14T18:30:41.120Z,7.00
2023-03-14T18:33:15.988Z,7.70
2023-03-14T18:35:48.581Z,6.10
2023-03-14T18:38:20.502Z,6.25
2023-03-14T18:40:53.669Z,4.82
2023-03-14T18:43:25.862Z,6.47
2023-03-14T18:45:58.158Z,5.63
2023-03-14T18:48:33.429Z,5.28
2023-03-14T18:51:05.718Z,4.53
2023-03-14T18:53:38.653Z,4.45
2023-03-14T18:56:14.081Z,4.57
2023-03-14T18:58:46.531Z,3.42
2023-03-14T19:01:19.762Z,3.90
2023-03-14T19:03:54.431Z,3.72
2023-03-14T19:06:27.131Z,3.83
2023-03-14T19:08:58.996Z,3.70
2023-03-14T19:11:31.670Z,3.65
2023-03-14T19:14:04.121Z,3.17
2023-03-14T19:16:36.342Z,3.40
2023-03-14T19:19:11.180Z,3.80
2023-03-14T19:21:47.188Z,3.70
2023-03-14T19:24:23.058Z,3.40
2023-03-14T19:26:55.993Z,3.42
2023-03-14T19:29:28.663Z,3.40
2023-03-14T19:32:00.890Z,3.95
2023-03-14T19:34:35.667Z,3.78
2023-03-14T19:37:08.092Z,3.60
2023-03-14T19:39:40.714Z,3.28
2023-03-14T19:42:14.028Z,3.22
2023-03-14T19:44:46.219Z,4.30
2023-03-14T19:47:18.848Z,3.60
2023-03-14T19:49:53.573Z,4.05
2023-03-14T19:52:25.965Z,3.53
2023-03-14T19:54:58.051Z,3.88
2023-03-14T19:57:30.474Z,3.28
2023-03-14T20:00:02.537Z,3.33
2023-03-14T20:02:35.091Z,3.38
2023-03-14T20:05:11.945Z,2.97
2023-03-14T20:07:46.912Z,3.30
2023-03-14T20:10:23.214Z,3.08
2023-03-14T20:12:55.859Z,3.10
2023-03-14T20:15:27.937Z,3.08
2023-03-14T20:18:00.117Z,3.75
2023-03-14T20:20:34.998Z,3.25
2023-03-14T20:23:07.134Z,3.60
2023-03-14T20:25:39.233Z,3.45
2023-03-14T20:28:11.413Z,3.78
2023-03-14T20:30:43.365Z,3.70
2023-03-14T20:33:18.718Z,3.72
2023-03-14T20:35:57.362Z,3.65
2023-03-14T20:38:31.471Z,2.60
2023-03-14T20:41:04.218Z,3.17
2023-03-14T20:43:38.041Z,3.38
2023-03-14T20:46:10.094Z,3.00
2023-03-14T20:48:42.293Z,2.83
2023-03-14T20:51:17.883Z,3.45
2023-03-14T20:53:50.059Z,2.78
2023-03-14T20:56:21.764Z,3.22
2023-03-14T20:58:53.841Z,2.88
2023-03-14T21:01:26.147Z,2.67
2023-03-14T21:03:58.453Z,3.13
2023-03-14T21:06:33.018Z,3.13
2023-03-14T21:09:05.849Z,3.30
2023-03-14T21:11:38.348Z,2.60
2023-03-14T21:14:10.408Z,3.17
2023-03-14T21:16:42.108Z,2.97
2023-03-14T21:19:14.638Z,2.67
2023-03-14T21:21:49.094Z,2.95
2023-03-14T21:24:21.117Z,2.58
2023-03-14T21:26:52.840Z,2.42
2023-03-14T21:29:25.791Z,2.38
2023-03-14T21:31:57.598Z,2.60
2023-03-14T21:34:30.848Z,2.85
2023-03-14T21:37:05.279Z,2.78
2023-03-14T21:39:37.575Z,2.55
2023-03-14T21:42:09.812Z,2.90
2023-03-14T21:44:46.709Z,2.42
2023-03-14T21:47:19.529Z,2.65
2023-03-14T21:49:51.495Z,3.47
2023-03-14T21:52:25.866Z,2.60
2023-03-14T21:54:58.032Z,2.38
2023-03-14T21:57:30.456Z,2.40
2023-03-14T22:00:02.555Z,3.00
2023-03-14T22:02:34.352Z,2.50
2023-03-14T22:05:06.934Z,2.35
2023-03-14T22:07:41.480Z,2.60
2023-03-14T22:10:15.761Z,2.78
2023-03-14T22:12:47.575Z,2.75
2023-03-14T22:15:19.725Z,2.42
2023-03-14T22:17:51.877Z,2.38
2023-03-14T22:20:24.368Z,2.35
2023-03-14T22:22:59.162Z,2.72
2023-03-14T22:25:31.794Z,2.60
2023-03-14T22:28:03.916Z,2.30
2023-03-14T22:30:36.487Z,2.70
2023-03-14T22:33:08.628Z,2.65
2023-03-14T22:35:41.197Z,2.58
2023-03-14T22:38:16.017Z,3.15
2023-03-14T22:40:48.481Z,2.83
2023-03-14T22:43:20.444Z,2.70
2023-03-14T22:46:02.046Z,3.03
2023-03-14T22:48:34.461Z,2.50
2023-03-14T22:51:10.866Z,2.47
2023-03-14T22:53:45.592Z,2.60
2023-03-14T22:56:18.090Z,2.50
2023-03-14T22:58:50.056Z,2.47
2023-03-14T23:01:22.416Z,2.63
2023-03-14T23:03:54.499Z,2.13
2023-03-14T23:06:27.028Z,2.28
2023-03-14T23:09:02.319Z,2.25
2023-03-14T23:11:35.661Z,2.83
2023-03-14T23:14:07.814Z,2.63
2023-03-14T23:16:41.190Z,2.35
2023-03-14T23:19:13.316Z,2.95
2023-03-14T23:21:45.937Z,2.88
2023-03-14T23:24:20.677Z,3.00
2023-03-14T23:26:54.457Z,2.88
2023-03-14T23:29:26.371Z,2.60
2023-03-14T23:31:58.770Z,3.13
2023-03-14T23:34:30.708Z,2.58
2023-03-14T23:37:02.941Z,2.35
2023-03-14T23:39:37.531Z,2.38
2023-03-14T23:42:10.761Z,2.67
2023-03-14T23:44:43.280Z,2.60
2023-03-14T23:47:15.750Z,2.72
2023-03-14T23:49:47.687Z,2.70
2023-03-14T23:52:20.153Z,2.50
2023-03-14T23:54:54.887Z,2.40
2023-03-14T23:57:27.230Z,3.05
2023-03-14T23:59:59.149Z,2.60
